createdAt,value
2023-05-02T00:00:01.350Z,99.99
2023-05-02T00:01:00.884Z,99.99
2023-05-02T00:02:00.872Z,99.99
2023-05-02T00:03:01.042Z,99.99
2023-05-02T00:04:00.862Z,99.99
2023-05-02T00:05:00.708Z,99.99
2023-05-02T00:06:00.787Z,99.99
2023-05-02T00:07:00.616Z,99.99
2023-05-02T00:08:00.572Z,99.99
2023-05-02T00:09:00.539Z,99.99
2023-05-02T00:10:01.055Z,99.99
2023-05-02T00:11:00.439Z,99.99
2023-05-02T00:12:00.396Z,99.99
2023-05-02T00:13:00.346Z,99.99
2023-05-02T00:14:00.303Z,99.99
2023-05-02T00:15:00.258Z,99.99
2023-05-02T00:16:00.396Z,99.99
2023-05-02T00:17:00.188Z,99.99
2023-05-02T00:18:00.194Z,99.99
2023-05-02T00:19:00.102Z,99.99
2023-05-02T00:20:00.314Z,99.99
2023-05-02T00:20:59.983Z,99.99
2023-05-02T00:21:59.964Z,99.99
2023-05-02T00:22:59.896Z,99.99
2023-05-02T00:23:59.851Z,99.99
2023-05-02T00:24:59.863Z,99.99
2023-05-02T00:25:59.759Z,99.99
2023-05-02T00:26:59.724Z,99.99
2023-05-02T00:27:59.677Z,99.99
2023-05-02T00:28:59.633Z,99.99
2023-05-02T00:29:59.806Z,99.99
2023-05-02T00:30:59.619Z,99.99
2023-05-02T00:31:59.492Z,99.99
2023-05-02T00:32:59.494Z,99.99
2023-05-02T00:33:59.401Z,99.99
2023-05-02T00:34:59.361Z,99.99
2023-05-02T00:35:59.316Z,99.99
2023-05-02T00:36:59.291Z,99.99
2023-05-02T00:37:59.222Z,99.99
2023-05-02T00:38:59.182Z,99.99
2023-05-02T00:39:59.387Z,99.99
2023-05-02T00:40:59.092Z,99.99
2023-05-02T00:41:59.067Z,99.99
2023-05-02T00:42:59.030Z,99.99
2023-05-02T00:43:58.958Z,99.99
2023-05-02T00:44:58.912Z,99.99
2023-05-02T00:45:58.914Z,99.99
2023-05-02T00:46:58.869Z,99.99
2023-05-02T00:47:58.822Z,99.99
2023-05-02T00:48:58.847Z,99.99
2023-05-02T00:49:58.906Z,99.99
2023-05-02T00:50:58.645Z,99.99
2023-05-02T00:51:58.597Z,99.99
2023-05-02T00:52:58.557Z,99.99
2023-05-02T00:53:58.523Z,99.99
2023-05-02T00:54:58.492Z,99.99
2023-05-02T00:55:58.426Z,99.99
2023-05-02T00:56:58.378Z,99.99
2023-05-02T00:57:58.331Z,99.99
2023-05-02T00:58:58.306Z,99.99
2023-05-02T00:59:58.408Z,99.99
2023-05-02T01:00:58.313Z,99.99
2023-05-02T01:01:58.210Z,99.99
2023-05-02T01:02:58.191Z,99.99
2023-05-02T01:03:58.203Z,99.99
2023-05-02T01:04:58.022Z,99.99
2023-05-02T01:05:57.976Z,99.99
2023-05-02T01:06:57.958Z,99.99
2023-05-02T01:07:57.925Z,99.99
2023-05-02T01:08:57.866Z,99.99
2023-05-02T01:09:58.048Z,99.99
2023-05-02T01:10:57.752Z,99.99
2023-05-02T01:11:57.717Z,99.99
2023-05-02T01:12:57.702Z,99.99
2023-05-02T01:13:57.653Z,99.99
2023-05-02T01:14:57.576Z,99.99
2023-05-02T01:15:57.573Z,99.99
2023-05-02T01:16:57.490Z,99.99
2023-05-02T01:17:57.476Z,99.99
2023-05-02T01:18:57.396Z,99.99
2023-05-02T01:19:57.455Z,99.99
2023-05-02T01:20:57.320Z,99.99
2023-05-02T01:21:57.262Z,99.99
2023-05-02T01:22:57.222Z,99.99
2023-05-02T01:23:57.190Z,99.99
2023-05-02T01:24:57.133Z,99.99
2023-05-02T01:25:57.122Z,99.99
2023-05-02T01:26:57.042Z,99.99
2023-05-02T01:27:56.996Z,99.99
2023-05-02T01:28:56.948Z,99.99
2023-05-02T01:29:56.960Z,99.99
2023-05-02T01:30:56.877Z,99.99
2023-05-02T01:31:56.947Z,99.99
2023-05-02T01:32:56.823Z,99.99
2023-05-02T01:33:56.747Z,99.99
2023-05-02T01:34:56.676Z,99.99
2023-05-02T01:35:56.636Z,99.99
2023-05-02T01:36:56.607Z,99.99
2023-05-02T01:37:56.550Z,99.99
2023-05-02T01:38:56.511Z,99.99
2023-05-02T01:39:56.480Z,99.99
2023-05-02T01:40:56.419Z,99.99
2023-05-02T01:41:56.558Z,99.99
2023-05-02T01:42:56.331Z,99.99
2023-05-02T01:43:56.283Z,99.99
2023-05-02T01:44:56.239Z,99.99
2023-05-02T01:45:56.205Z,99.99
2023-05-02T01:46:56.167Z,99.99
2023-05-02T01:47:56.174Z,99.99
2023-05-02T01:48:56.056Z,99.99
2023-05-02T01:49:56.015Z,99.99
2023-05-02T01:50:55.968Z,99.99
2023-05-02T01:51:55.924Z,99.99
2023-05-02T01:52:55.886Z,99.99
2023-05-02T01:53:55.871Z,99.99
2023-05-02T01:54:55.788Z,99.99
2023-05-02T01:55:55.746Z,99.99
2023-05-02T01:56:55.713Z,99.99
2023-05-02T01:57:55.666Z,99.99
2023-05-02T01:58:55.616Z,99.99
2023-05-02T01:59:55.587Z,99.99
2023-05-02T02:00:55.570Z,99.99
2023-05-02T02:01:55.479Z,99.99
2023-05-02T02:02:55.479Z,99.99
2023-05-02T02:03:55.423Z,99.99
2023-05-02T02:04:55.343Z,99.99
2023-05-02T02:05:55.336Z,99.99
2023-05-02T02:06:55.258Z,99.99
2023-05-02T02:07:55.213Z,99.99
2023-05-02T02:08:55.169Z,99.99
2023-05-02T02:09:55.126Z,99.99
2023-05-02T02:10:55.076Z,99.99
2023-05-02T02:11:55.043Z,99.99
2023-05-02T02:12:54.990Z,99.99
2023-05-02T02:13:54.945Z,99.99
2023-05-02T02:14:54.894Z,99.99
2023-05-02T02:15:54.854Z,99.99
2023-05-02T02:16:54.890Z,99.99
2023-05-02T02:17:54.869Z,99.99
2023-05-02T02:18:54.720Z,99.99
2023-05-02T02:19:54.684Z,99.99
2023-05-02T02:20:54.626Z,99.99
2023-05-02T02:21:54.587Z,99.99
2023-05-02T02:22:54.537Z,99.99
2023-05-02T02:23:54.508Z,99.99
2023-05-02T02:24:54.578Z,99.99
2023-05-02T02:25:54.403Z,99.99
2023-05-02T02:26:54.361Z,99.99
2023-05-02T02:27:54.317Z,99.99
2023-05-02T02:28:54.270Z,99.99
2023-05-02T02:29:54.242Z,99.99
2023-05-02T02:30:54.211Z,99.99
2023-05-02T02:31:54.212Z,99.99
2023-05-02T02:32:54.174Z,99.99
2023-05-02T02:33:54.073Z,99.99
2023-05-02T02:34:54.007Z,99.99
2023-05-02T02:35:53.982Z,99.99
2023-05-02T02:36:53.940Z,99.99
2023-05-02T02:37:53.887Z,99.99
2023-05-02T02:38:53.829Z,99.99
2023-05-02T02:39:53.785Z,99.99
2023-05-02T02:40:53.740Z,99.99
2023-05-02T02:41:53.718Z,99.99
2023-05-02T02:42:53.647Z,99.99
2023-05-02T02:43:53.619Z,99.99
2023-05-02T02:44:53.560Z,99.99
2023-05-02T02:45:53.560Z,99.99
2023-05-02T02:46:53.470Z,99.99
2023-05-02T02:47:53.482Z,99.99
2023-05-02T02:48:53.380Z,99.99
2023-05-02T02:49:53.336Z,99.99
2023-05-02T02:50:53.306Z,99.99
2023-05-02T02:51:53.249Z,99.99
2023-05-02T02:52:53.213Z,99.99
2023-05-02T02:53:53.162Z,99.99
2023-05-02T02:54:53.108Z,99.99
2023-05-02T02:55:53.069Z,99.99
2023-05-02T02:56:53.050Z,99.99
2023-05-02T02:57:52.976Z,99.99
2023-05-02T02:58:52.932Z,99.99
2023-05-02T02:59:52.889Z,99.99
2023-05-02T03:00:52.848Z,99.99
2023-05-02T03:01:52.848Z,99.99
2023-05-02T03:02:52.884Z,99.99
2023-05-02T03:03:52.760Z,99.99
2023-05-02T03:04:52.682Z,99.99
2023-05-02T03:05:52.636Z,99.99
2023-05-02T03:06:52.656Z,99.99
2023-05-02T03:07:52.527Z,99.99
2023-05-02T03:08:52.510Z,99.99
2023-05-02T03:09:52.446Z,99.99
2023-05-02T03:10:52.398Z,99.99
2023-05-02T03:11:52.368Z,99.99
2023-05-02T03:12:52.311Z,99.99
2023-05-02T03:13:52.267Z,99.99
2023-05-02T03:14:52.243Z,99.99
2023-05-02T03:15:52.251Z,99.99
2023-05-02T03:16:52.137Z,99.99
2023-05-02T03:17:52.168Z,99.99
2023-05-02T03:18:52.043Z,99.99
2023-05-02T03:19:52.002Z,99.99
2023-05-02T03:20:51.992Z,99.99
2023-05-02T03:21:51.944Z,99.99
2023-05-02T03:22:51.934Z,99.99
2023-05-02T03:23:51.823Z,99.99
2023-05-02T03:24:51.781Z,99.99
2023-05-02T03:25:51.741Z,99.99
2023-05-02T03:26:51.691Z,99.99
2023-05-02T03:27:51.649Z,99.99
2023-05-02T03:28:51.616Z,99.99
2023-05-02T03:29:51.562Z,99.99
2023-05-02T03:30:51.515Z,99.99
2023-05-02T03:31:51.511Z,99.99
2023-05-02T03:32:51.461Z,99.99
2023-05-02T03:33:51.386Z,99.99
2023-05-02T03:34:51.603Z,99.99
2023-05-02T03:35:51.298Z,99.99
2023-05-02T03:36:51.248Z,99.99
2023-05-02T03:37:51.226Z,99.99
2023-05-02T03:38:51.184Z,99.99
2023-05-02T03:39:51.117Z,99.99
2023-05-02T03:40:51.104Z,99.99
2023-05-02T03:41:51.028Z,99.99
2023-05-02T03:42:50.985Z,99.99
2023-05-02T03:43:50.944Z,99.99
2023-05-02T03:44:50.897Z,99.99
2023-05-02T03:45:50.857Z,99.99
2023-05-02T03:46:50.888Z,99.99
2023-05-02T03:47:50.803Z,99.99
2023-05-02T03:48:50.724Z,99.99
2023-05-02T03:49:50.674Z,99.99
2023-05-02T03:50:50.628Z,99.99
2023-05-02T03:51:50.586Z,99.99
2023-05-02T03:52:50.568Z,99.99
2023-05-02T03:53:50.498Z,99.99
2023-05-02T03:54:50.455Z,99.99
2023-05-02T03:55:50.410Z,99.99
2023-05-02T03:56:50.364Z,99.99
2023-05-02T03:57:50.317Z,99.99
2023-05-02T03:58:50.315Z,99.99
2023-05-02T03:59:50.238Z,99.99
2023-05-02T04:00:50.187Z,99.99
2023-05-02T04:01:50.255Z,99.99
2023-05-02T04:02:50.244Z,99.99
2023-05-02T04:03:50.093Z,99.99
2023-05-02T04:04:50.013Z,99.99
2023-05-02T04:05:49.968Z,99.99
2023-05-02T04:06:49.957Z,99.99
2023-05-02T04:07:49.924Z,99.99
2023-05-02T04:08:49.836Z,99.99
2023-05-02T04:09:49.807Z,99.99
2023-05-02T04:10:49.741Z,99.99
2023-05-02T04:11:49.701Z,99.99
2023-05-02T04:12:49.659Z,99.99
2023-05-02T04:13:50.466Z,99.99
2023-05-02T04:14:49.577Z,99.99
2023-05-02T04:15:49.526Z,99.99
2023-05-02T04:16:49.706Z,99.99
2023-05-02T04:17:49.458Z,99.99
2023-05-02T04:18:49.404Z,99.99
2023-05-02T04:19:49.345Z,99.99
2023-05-02T04:20:49.304Z,99.99
2023-05-02T04:21:49.266Z,99.99
2023-05-02T04:22:49.229Z,99.99
2023-05-02T04:23:49.173Z,99.99
2023-05-02T04:24:49.126Z,99.99
2023-05-02T04:25:49.083Z,99.99
2023-05-02T04:26:49.052Z,99.99
2023-05-02T04:27:48.990Z,99.99
2023-05-02T04:28:48.975Z,99.99
2023-05-02T04:29:48.928Z,99.99
2023-05-02T04:30:48.888Z,99.99
2023-05-02T04:31:48.846Z,99.99
2023-05-02T04:32:48.852Z,99.99
2023-05-02T04:33:48.725Z,99.99
2023-05-02T04:34:48.706Z,99.99
2023-05-02T04:35:48.640Z,99.99
2023-05-02T04:36:48.594Z,99.99
2023-05-02T04:37:48.553Z,99.99
2023-05-02T04:38:48.500Z,99.99
2023-05-02T04:39:48.473Z,99.99
2023-05-02T04:40:48.444Z,99.99
2023-05-02T04:41:48.413Z,99.99
2023-05-02T04:42:48.335Z,99.99
2023-05-02T04:43:48.284Z,99.99
2023-05-02T04:44:48.243Z,99.99
2023-05-02T04:45:48.227Z,99.99
2023-05-02T04:46:48.188Z,99.99
2023-05-02T04:47:48.121Z,99.99
2023-05-02T04:48:48.060Z,99.99
2023-05-02T04:49:48.025Z,99.99
2023-05-02T04:50:47.983Z,99.99
2023-05-02T04:51:47.947Z,99.99
2023-05-02T04:52:47.934Z,99.99
2023-05-02T04:53:47.839Z,99.99
2023-05-02T04:54:47.794Z,99.99
2023-05-02T04:55:47.777Z,99.99
2023-05-02T04:56:47.707Z,99.99
2023-05-02T04:57:47.678Z,99.99
2023-05-02T04:58:47.614Z,99.99
2023-05-02T04:59:47.586Z,99.99
2023-05-02T05:00:47.556Z,99.99
2023-05-02T05:01:47.524Z,99.99
2023-05-02T05:02:47.560Z,99.99
2023-05-02T05:03:47.535Z,99.99
2023-05-02T05:04:47.362Z,99.99
2023-05-02T05:05:47.475Z,99.99
2023-05-02T05:06:47.347Z,99.99
2023-05-02T05:07:47.226Z,99.99
2023-05-02T05:08:47.183Z,99.99
2023-05-02T05:09:47.167Z,99.99
2023-05-02T05:10:47.090Z,99.99
2023-05-02T05:11:47.050Z,99.99
2023-05-02T05:12:47.003Z,99.99
2023-05-02T05:13:46.962Z,99.99
2023-05-02T05:14:46.933Z,99.99
2023-05-02T05:15:46.907Z,99.99
2023-05-02T05:16:46.975Z,99.99
2023-05-02T05:17:46.848Z,99.99
2023-05-02T05:18:46.743Z,99.99
2023-05-02T05:19:46.693Z,99.99
2023-05-02T05:20:46.658Z,99.99
2023-05-02T05:21:46.623Z,99.99
2023-05-02T05:22:46.564Z,99.99
2023-05-02T05:23:46.545Z,99.99
2023-05-02T05:24:46.482Z,99.99
2023-05-02T05:25:46.428Z,99.99
2023-05-02T05:26:46.387Z,99.99
2023-05-02T05:27:46.373Z,99.99
2023-05-02T05:28:46.302Z,99.99
2023-05-02T05:29:46.261Z,99.99
2023-05-02T05:30:46.215Z,99.99
2023-05-02T05:31:46.215Z,99.99
2023-05-02T05:32:46.215Z,99.99
2023-05-02T05:33:46.115Z,99.99
2023-05-02T05:34:46.041Z,99.99
2023-05-02T05:35:46.015Z,99.99
2023-05-02T05:36:45.948Z,99.99
2023-05-02T05:37:45.932Z,99.99
2023-05-02T05:38:45.859Z,99.99
2023-05-02T05:39:45.812Z,99.99
2023-05-02T05:40:45.777Z,99.99
2023-05-02T05:41:45.732Z,99.99
2023-05-02T05:42:45.708Z,99.99
2023-05-02T05:43:45.644Z,99.99
2023-05-02T05:44:45.604Z,99.99
2023-05-02T05:45:45.559Z,99.99
2023-05-02T05:46:45.562Z,99.99
2023-05-02T05:47:45.538Z,99.43
2023-05-02T05:48:45.431Z,98.95
2023-05-02T05:49:45.388Z,98.71
2023-05-02T05:50:45.340Z,98.38
2023-05-02T05:51:45.321Z,98.81
2023-05-02T05:52:45.345Z,98.24
2023-05-02T05:53:45.228Z,98.90
2023-05-02T05:54:45.162Z,98.33
2023-05-02T05:55:45.128Z,98.52
2023-05-02T05:56:45.073Z,98.04
2023-05-02T05:57:45.034Z,97.28
2023-05-02T05:58:44.991Z,96.89
2023-05-02T05:59:44.977Z,96.80
2023-05-02T06:03:48.250Z,96.89
2023-05-02T06:04:47.945Z,97.28
2023-05-02T06:05:47.886Z,97.75
2023-05-02T06:06:47.956Z,98.33
2023-05-02T06:07:47.791Z,98.43
2023-05-02T06:08:47.745Z,98.71
2023-05-02T06:09:47.734Z,97.56
2023-05-02T06:10:47.654Z,96.99
2023-05-02T06:11:47.614Z,97.18
2023-05-02T06:12:49.144Z,96.70
2023-05-02T06:13:47.531Z,97.08
2023-05-02T06:14:47.486Z,96.70
2023-05-02T06:15:47.496Z,96.80
2023-05-02T06:16:47.398Z,96.61
2023-05-02T06:17:47.390Z,96.51
2023-05-02T06:18:47.502Z,96.03
2023-05-02T06:19:47.258Z,95.84
2023-05-02T06:20:47.218Z,95.84
2023-05-02T06:21:47.187Z,95.84
2023-05-02T06:22:47.135Z,95.65
2023-05-02T06:23:47.093Z,96.03
2023-05-02T06:24:47.052Z,95.65
2023-05-02T06:25:47.005Z,95.65
2023-05-02T06:26:46.985Z,95.75
2023-05-02T06:27:46.938Z,96.80
2023-05-02T06:28:46.867Z,96.89
2023-05-02T06:29:46.846Z,96.32
2023-05-02T06:30:46.814Z,95.84
2023-05-02T06:31:46.796Z,95.61
2023-05-02T06:32:46.726Z,95.61
2023-05-02T06:33:46.653Z,95.89
2023-05-02T06:34:46.655Z,95.98
2023-05-02T06:35:46.564Z,95.41
2023-05-02T06:36:46.522Z,94.74
2023-05-02T06:37:46.476Z,94.50
2023-05-02T06:38:46.436Z,94.17
2023-05-02T06:39:46.386Z,93.21
2023-05-02T06:40:46.378Z,93.12
2023-05-02T06:41:46.305Z,92.73
2023-05-02T06:42:46.293Z,92.83
2023-05-02T06:43:46.222Z,93.40
2023-05-02T06:44:46.173Z,93.40
2023-05-02T06:45:46.133Z,93.59
2023-05-02T06:46:46.115Z,94.65
2023-05-02T06:47:46.071Z,94.55
2023-05-02T06:48:46.073Z,94.65
2023-05-02T06:49:45.955Z,94.17
2023-05-02T06:50:45.912Z,94.65
2023-05-02T06:51:45.869Z,95.12
2023-05-02T06:52:45.834Z,95.22
2023-05-02T06:53:45.785Z,96.18
2023-05-02T06:54:45.860Z,96.94
2023-05-02T06:55:45.699Z,97.80
2023-05-02T06:56:45.659Z,96.80
2023-05-02T06:57:45.607Z,94.60
2023-05-02T06:58:45.569Z,93.26
2023-05-02T06:59:45.519Z,93.26
2023-05-02T07:00:45.603Z,92.87
2023-05-02T07:01:45.460Z,91.44
2023-05-02T07:02:45.429Z,89.66
2023-05-02T07:03:45.414Z,87.08
2023-05-02T07:04:45.356Z,85.64
2023-05-02T07:05:45.268Z,86.12
2023-05-02T07:06:45.297Z,85.78
2023-05-02T07:07:45.195Z,84.05
2023-05-02T07:08:45.136Z,82.14
2023-05-02T07:09:45.104Z,81.98
2023-05-02T07:10:45.059Z,80.64
2023-05-02T07:11:45.007Z,81.12
2023-05-02T07:12:44.991Z,82.75
2023-05-02T07:13:44.922Z,83.27
2023-05-02T07:14:44.889Z,81.74
2023-05-02T07:15:44.855Z,80.87
2023-05-02T07:16:44.824Z,80.11
2023-05-02T07:17:44.825Z,78.99
2023-05-02T07:18:44.768Z,78.23
2023-05-02T07:19:45.693Z,76.98
2023-05-02T07:20:44.636Z,77.36
2023-05-02T07:21:44.590Z,77.56
2023-05-02T07:22:44.553Z,76.88
2023-05-02T07:23:44.527Z,76.02
2023-05-02T07:24:44.468Z,77.50
2023-05-02T07:25:44.449Z,75.96
2023-05-02T07:26:44.409Z,74.62
2023-05-02T07:27:44.366Z,74.13
2023-05-02T07:28:44.297Z,73.56
2023-05-02T07:29:44.292Z,74.75
2023-05-02T07:30:44.218Z,74.94
2023-05-02T07:31:44.206Z,74.94
2023-05-02T07:32:44.201Z,74.37
2023-05-02T07:33:44.103Z,74.17
2023-05-02T07:34:44.054Z,74.75
2023-05-02T07:35:44.033Z,74.27
2023-05-02T07:36:43.975Z,71.58
2023-05-02T07:37:43.933Z,71.10
2023-05-02T07:38:43.925Z,70.72
2023-05-02T07:39:43.912Z,71.39
2023-05-02T07:40:43.810Z,71.00
2023-05-02T07:41:43.777Z,71.00
2023-05-02T07:42:43.733Z,71.29
2023-05-02T07:43:43.698Z,72.44
2023-05-02T07:44:43.647Z,73.41
2023-05-02T07:45:43.694Z,74.08
2023-05-02T07:46:43.607Z,73.63
2023-05-02T07:47:43.576Z,71.29
2023-05-02T07:48:43.488Z,70.62
2023-05-02T07:49:43.449Z,70.90
2023-05-02T07:50:43.406Z,70.97
2023-05-02T07:51:43.392Z,70.90
2023-05-02T07:52:43.334Z,70.87
2023-05-02T07:53:43.284Z,72.34
2023-05-02T07:54:43.248Z,72.83
2023-05-02T07:55:43.204Z,71.06
2023-05-02T07:56:43.194Z,71.25
2023-05-02T07:57:43.124Z,72.12
2023-05-02T07:58:43.086Z,71.93
2023-05-02T07:59:43.042Z,70.87
2023-05-02T08:00:42.997Z,71.83
2023-05-02T08:01:42.992Z,72.99
2023-05-02T08:02:43.107Z,72.64
2023-05-02T08:03:43.023Z,72.44
2023-05-02T08:04:42.891Z,72.25
2023-05-02T08:05:42.823Z,71.58
2023-05-02T08:06:42.809Z,71.29
2023-05-02T08:07:42.741Z,70.65
2023-05-02T08:08:42.702Z,70.17
2023-05-02T08:09:42.642Z,69.98
2023-05-02T08:10:42.627Z,69.69
2023-05-02T08:11:42.584Z,70.75
2023-05-02T08:12:42.517Z,70.75
2023-05-02T08:13:42.481Z,70.56
2023-05-02T08:14:42.433Z,67.86
2023-05-02T08:15:42.425Z,68.15
2023-05-02T08:16:44.111Z,68.92
2023-05-02T08:17:42.339Z,70.07
2023-05-02T08:18:42.275Z,68.44
2023-05-02T08:19:42.233Z,68.35
2023-05-02T08:20:42.199Z,67.51
2023-05-02T08:21:42.151Z,65.97
2023-05-02T08:22:42.162Z,66.39
2023-05-02T08:23:42.110Z,66.58
2023-05-02T08:24:42.033Z,65.91
2023-05-02T08:25:41.989Z,65.72
2023-05-02T08:26:41.955Z,64.40
2023-05-02T08:27:41.906Z,63.15
2023-05-02T08:28:41.891Z,63.47
2023-05-02T08:29:41.831Z,62.15
2023-05-02T08:30:41.796Z,61.41
2023-05-02T08:31:41.845Z,61.06
2023-05-02T08:32:41.730Z,58.94
2023-05-02T08:33:41.672Z,59.42
2023-05-02T08:34:41.725Z,58.07
2023-05-02T08:35:41.587Z,58.19
2023-05-02T08:36:41.548Z,58.22
2023-05-02T08:37:41.509Z,58.32
2023-05-02T08:38:42.301Z,56.33
2023-05-02T08:39:41.433Z,56.88
2023-05-02T08:40:42.697Z,58.14
2023-05-02T08:41:41.364Z,58.69
2023-05-02T08:42:41.335Z,59.17
2023-05-02T08:43:41.270Z,58.59
2023-05-02T08:44:41.226Z,59.55
2023-05-02T08:45:41.207Z,59.75
2023-05-02T08:46:41.189Z,58.33
2023-05-02T08:47:41.121Z,58.52
2023-05-02T08:48:41.086Z,58.42
2023-05-02T08:49:41.036Z,59.25
2023-05-02T08:50:40.984Z,58.70
2023-05-02T08:51:42.293Z,56.80
2023-05-02T08:52:40.904Z,55.47
2023-05-02T08:53:40.867Z,53.89
2023-05-02T08:54:40.838Z,52.17
2023-05-02T08:55:40.803Z,52.00
2023-05-02T08:56:40.747Z,50.67
2023-05-02T08:57:40.711Z,50.02
2023-05-02T08:58:40.670Z,50.24
2023-05-02T08:59:40.630Z,49.49
2023-05-02T09:00:40.607Z,47.76
2023-05-02T09:01:40.692Z,46.89
2023-05-02T09:02:40.534Z,46.69
2023-05-02T09:03:40.475Z,47.52
2023-05-02T09:04:40.544Z,45.60
2023-05-02T09:05:40.406Z,44.14
2023-05-02T09:06:40.430Z,44.26
2023-05-02T09:07:40.332Z,44.09
2023-05-02T09:08:40.295Z,42.25
2023-05-02T09:09:40.254Z,40.91
2023-05-02T09:10:40.225Z,40.06
2023-05-02T09:11:40.182Z,40.08
2023-05-02T09:12:40.178Z,37.63
2023-05-02T09:13:40.119Z,36.57
2023-05-02T09:14:40.074Z,35.67
2023-05-02T09:15:40.056Z,36.63
2023-05-02T09:16:40.145Z,37.87
2023-05-02T09:17:40.016Z,36.98
2023-05-02T09:18:39.933Z,38.05
2023-05-02T09:19:39.921Z,37.76
2023-05-02T09:20:39.869Z,38.95
2023-05-02T09:21:39.842Z,38.85
2023-05-02T09:22:39.797Z,37.89
2023-05-02T09:23:39.792Z,37.71
2023-05-02T09:24:39.730Z,37.81
2023-05-02T09:25:39.694Z,36.55
2023-05-02T09:26:39.664Z,36.61
2023-05-02T09:27:39.625Z,37.39
2023-05-02T09:28:39.596Z,37.89
2023-05-02T09:29:39.609Z,38.01
2023-05-02T09:30:39.554Z,37.62
2023-05-02T09:32:39.517Z,36.94
2023-05-02T09:33:39.426Z,37.05
2023-05-02T09:34:39.396Z,36.29
2023-05-02T09:35:39.381Z,35.53
2023-05-02T09:36:39.330Z,34.65
2023-05-02T09:37:39.298Z,34.45
2023-05-02T09:38:39.310Z,34.67
2023-05-02T09:39:39.244Z,34.28
2023-05-02T09:40:39.206Z,33.59
2023-05-02T09:41:39.197Z,33.61
2023-05-02T09:42:39.134Z,33.20
2023-05-02T09:43:39.120Z,34.24
2023-05-02T09:44:39.110Z,35.47
2023-05-02T09:45:39.037Z,36.72
2023-05-02T09:46:39.125Z,37.66
2023-05-02T09:47:39.040Z,38.32
2023-05-02T09:48:38.942Z,38.87
2023-05-02T09:49:38.914Z,39.14
2023-05-02T09:50:38.894Z,40.00
2023-05-02T09:51:38.842Z,41.05
2023-05-02T09:52:38.811Z,41.61
2023-05-02T09:53:38.800Z,42.29
2023-05-02T09:54:38.759Z,42.85
2023-05-02T09:55:38.699Z,43.89
2023-05-02T09:56:38.665Z,43.99
2023-05-02T09:57:38.650Z,43.91
2023-05-02T09:58:38.597Z,43.13
2023-05-02T09:59:38.576Z,43.04
2023-05-02T10:00:38.522Z,43.33
2023-05-02T10:01:38.556Z,43.31
2023-05-02T10:02:38.483Z,43.31
2023-05-02T10:03:38.435Z,43.89
2023-05-02T10:04:38.468Z,44.26
2023-05-02T10:05:38.349Z,44.06
2023-05-02T10:06:38.336Z,44.04
2023-05-02T10:07:38.331Z,43.85
2023-05-02T10:08:38.237Z,44.91
2023-05-02T10:09:38.203Z,44.70
2023-05-02T10:10:38.170Z,45.57
2023-05-02T10:11:38.129Z,44.57
2023-05-02T10:12:38.103Z,44.96
2023-05-02T10:13:38.096Z,44.87
2023-05-02T10:14:38.025Z,45.54
2023-05-02T10:15:38.012Z,46.32
2023-05-02T10:16:37.956Z,44.77
2023-05-02T10:17:37.952Z,45.08
2023-05-02T10:18:37.880Z,45.08
2023-05-02T10:19:38.029Z,44.53
2023-05-02T10:20:37.805Z,43.89
2023-05-02T10:21:37.760Z,43.23
2023-05-02T10:22:37.736Z,42.85
2023-05-02T10:23:37.693Z,42.77
2023-05-02T10:24:37.676Z,42.85
2023-05-02T10:25:37.643Z,43.23
2023-05-02T10:26:37.590Z,43.43
2023-05-02T10:27:37.548Z,43.50
2023-05-02T10:28:37.513Z,43.96
2023-05-02T10:29:37.476Z,44.93
2023-05-02T10:30:37.439Z,44.84
2023-05-02T10:31:37.579Z,45.01
2023-05-02T10:32:37.385Z,44.53
2023-05-02T10:33:37.330Z,45.59
2023-05-02T10:34:37.293Z,45.28
2023-05-02T10:35:37.252Z,45.66
2023-05-02T10:36:37.217Z,45.45
2023-05-02T10:37:37.208Z,46.22
2023-05-02T10:38:37.150Z,46.51
2023-05-02T10:39:37.104Z,46.68
2023-05-02T10:40:37.070Z,46.97
2023-05-02T10:41:37.032Z,47.16
2023-05-02T10:42:36.997Z,47.94
2023-05-02T10:43:36.975Z,47.19
2023-05-02T10:44:36.916Z,47.31
2023-05-02T10:45:36.938Z,46.34
2023-05-02T10:46:36.917Z,45.49
2023-05-02T10:47:36.830Z,43.55
2023-05-02T10:48:36.772Z,43.58
2023-05-02T10:49:36.746Z,43.68
2023-05-02T10:50:36.697Z,44.33
2023-05-02T10:51:36.660Z,43.85
2023-05-02T10:52:36.649Z,43.85
2023-05-02T10:53:36.619Z,43.65
2023-05-02T10:54:36.550Z,43.65
2023-05-02T10:55:36.508Z,44.31
2023-05-02T10:56:36.468Z,44.70
2023-05-02T10:57:36.434Z,44.77
2023-05-02T10:58:36.408Z,45.18
2023-05-02T10:59:36.364Z,46.12
2023-05-02T11:00:36.346Z,46.32
2023-05-02T11:01:36.283Z,45.54
2023-05-02T11:02:36.340Z,46.15
2023-05-02T11:03:36.257Z,45.95
2023-05-02T11:04:36.265Z,46.63
2023-05-02T11:05:36.135Z,46.53
2023-05-02T11:06:36.147Z,44.79
2023-05-02T11:07:36.060Z,44.48
2023-05-02T11:08:36.051Z,45.16
2023-05-02T11:09:36.010Z,45.54
2023-05-02T11:10:35.951Z,45.47
2023-05-02T11:11:35.914Z,44.79
2023-05-02T11:12:35.907Z,44.89
2023-05-02T11:13:35.832Z,46.05
2023-05-02T11:14:35.803Z,45.40
2023-05-02T11:15:35.764Z,43.31
2023-05-02T11:16:35.745Z,42.11
2023-05-02T11:17:35.715Z,40.89
2023-05-02T11:18:35.681Z,39.10
2023-05-02T11:19:35.615Z,36.80
2023-05-02T11:20:35.582Z,36.16
2023-05-02T11:21:35.555Z,33.92
2023-05-02T11:22:35.523Z,32.67
2023-05-02T11:23:35.483Z,32.58
2023-05-02T11:24:35.471Z,32.19
2023-05-02T11:25:35.411Z,32.39
2023-05-02T11:26:35.391Z,32.47
2023-05-02T11:27:35.349Z,32.37
2023-05-02T11:28:35.354Z,33.04
2023-05-02T11:29:35.276Z,33.51
2023-05-02T11:30:35.271Z,35.36
2023-05-02T11:31:35.258Z,36.27
2023-05-02T11:32:35.190Z,35.31
2023-05-02T11:33:35.139Z,34.84
2023-05-02T11:34:35.109Z,32.32
2023-05-02T11:35:35.074Z,31.95
2023-05-02T11:36:35.070Z,31.84
2023-05-02T11:37:35.030Z,31.84
2023-05-02T11:38:35.001Z,32.21
2023-05-02T11:39:34.967Z,32.09
2023-05-02T11:40:34.917Z,32.37
2023-05-02T11:41:34.881Z,32.43
2023-05-02T11:42:34.847Z,32.71
2023-05-02T11:43:34.832Z,33.28
2023-05-02T11:44:34.780Z,34.63
2023-05-02T11:45:34.743Z,34.98
2023-05-02T11:46:34.760Z,35.45
2023-05-02T11:47:34.691Z,36.40
2023-05-02T11:48:34.640Z,37.45
2023-05-02T11:49:34.672Z,38.58
2023-05-02T11:50:34.573Z,42.82
2023-05-02T11:51:34.570Z,49.29
2023-05-02T11:52:34.496Z,53.86
2023-05-02T11:53:34.465Z,56.48
2023-05-02T11:54:34.425Z,59.17
2023-05-02T11:55:34.449Z,65.81
2023-05-02T11:56:34.350Z,69.60
2023-05-02T11:57:34.345Z,75.45
2023-05-02T11:58:34.433Z,90.47
2023-05-02T11:59:34.241Z,99.99
2023-05-02T12:00:34.220Z,99.99
2023-05-02T12:01:34.186Z,99.99
2023-05-02T12:02:34.230Z,99.15
2023-05-02T12:03:34.252Z,98.19
2023-05-02T12:04:34.037Z,94.79
2023-05-02T12:05:34.044Z,94.12
2023-05-02T12:06:33.982Z,95.65
2023-05-02T12:07:33.955Z,94.74
2023-05-02T12:08:33.878Z,97.42
2023-05-02T12:09:33.843Z,98.00
2023-05-02T12:10:33.800Z,99.52
2023-05-02T12:11:33.760Z,99.99
2023-05-02T12:12:33.716Z,99.99
2023-05-02T12:13:33.701Z,99.99
2023-05-02T12:14:33.651Z,99.99
2023-05-02T12:15:33.593Z,99.99
2023-05-02T12:16:33.593Z,99.99
2023-05-02T12:17:33.529Z,99.99
2023-05-02T12:18:33.471Z,99.99
2023-05-02T12:19:33.445Z,99.99
2023-05-02T12:20:33.383Z,99.99
2023-05-02T12:21:33.397Z,99.99
2023-05-02T12:22:33.303Z,99.99
2023-05-02T12:23:34.755Z,99.99
2023-05-02T12:24:33.215Z,99.99
2023-05-02T12:25:33.204Z,99.99
2023-05-02T12:26:33.228Z,99.99
2023-05-02T12:27:33.086Z,99.99
2023-05-02T12:28:33.049Z,99.99
2023-05-02T12:29:33.012Z,98.24
2023-05-02T12:30:32.978Z,90.70
2023-05-02T12:31:33.015Z,84.21
2023-05-02T12:32:32.914Z,85.40
2023-05-02T12:33:32.861Z,87.08
2023-05-02T12:34:32.829Z,85.00
2023-05-02T12:35:32.773Z,80.87
2023-05-02T12:36:32.797Z,78.79
2023-05-02T12:37:32.683Z,76.48
2023-05-02T12:38:32.678Z,74.65
2023-05-02T12:39:32.636Z,72.05
2023-05-02T12:40:32.584Z,71.95
2023-05-02T12:41:32.542Z,69.93
2023-05-02T12:42:32.540Z,71.24
2023-05-02T12:43:32.460Z,71.53
2023-05-02T12:44:32.426Z,73.74
2023-05-02T12:45:32.383Z,72.88
2023-05-02T12:46:32.761Z,72.07
2023-05-02T12:47:32.370Z,70.95
2023-05-02T12:48:32.269Z,71.24
2023-05-02T12:49:32.231Z,72.49
2023-05-02T12:50:32.196Z,72.97
2023-05-02T12:51:32.156Z,73.36
2023-05-02T12:52:32.120Z,70.12
2023-05-02T12:53:32.267Z,70.89
2023-05-02T12:54:32.042Z,67.26
2023-05-02T12:55:31.997Z,65.20